createdAt,value
2022-10-06T00:02:23.206Z,101986.44
2022-10-06T00:04:49.670Z,101997.94
2022-10-06T00:07:16.217Z,102002.31
2022-10-06T00:09:42.577Z,102012.06
2022-10-06T00:12:09.921Z,102006.56
2022-10-06T00:14:36.884Z,102014.44
2022-10-06T00:17:04.082Z,102034.44
2022-10-06T00:19:31.218Z,102041.16
2022-10-06T00:21:57.693Z,102040.50
2022-10-06T00:24:24.069Z,102040.88
2022-10-06T00:26:50.554Z,102057.16
2022-10-06T00:29:16.897Z,102058.66
2022-10-06T00:31:43.665Z,102056.31
2022-10-06T00:34:10.211Z,102072.50
2022-10-06T00:36:37.154Z,102065.84
2022-10-06T00:39:03.670Z,102082.97
2022-10-06T00:41:30.092Z,102081.28
2022-10-06T00:43:58.482Z,102081.19
2022-10-06T00:46:33.055Z,102089.78
2022-10-06T00:49:15.719Z,102083.72
2022-10-06T00:51:48.197Z,102106.81
2022-10-06T00:54:16.368Z,102095.16
2022-10-06T00:56:44.204Z,102106.16
2022-10-06T00:59:16.089Z,102115.28
2022-10-06T01:01:51.247Z,102121.66
2022-10-06T01:04:18.147Z,102125.84
2022-10-06T01:06:49.792Z,102123.97
2022-10-06T01:09:19.581Z,102122.41
2022-10-06T01:11:49.901Z,102134.75
2022-10-06T01:14:18.110Z,102132.88
2022-10-06T01:16:47.666Z,102139.50
2022-10-06T01:19:28.077Z,102140.72
2022-10-06T01:21:57.181Z,102142.94
2022-10-06T01:24:23.666Z,102152.47
2022-10-06T01:26:52.242Z,102153.88
2022-10-06T01:29:18.988Z,102163.88
2022-10-06T01:31:45.725Z,102163.69
2022-10-06T01:34:12.084Z,102167.91
2022-10-06T01:36:41.150Z,102160.97
2022-10-06T01:39:08.124Z,102183.47
2022-10-06T01:41:34.745Z,102180.78
2022-10-06T01:44:02.222Z,102185.81
2022-10-06T01:46:29.866Z,102185.63
2022-10-06T01:48:56.389Z,102187.03
2022-10-06T01:51:23.758Z,102189.25
2022-10-06T01:53:50.158Z,102185.91
2022-10-06T01:56:16.941Z,102193.19
2022-10-06T01:58:43.422Z,102194.03
2022-10-06T02:01:10.751Z,102191.97
2022-10-06T02:03:39.030Z,102193.56
2022-10-06T02:06:06.296Z,102195.25
2022-10-06T02:08:33.072Z,102195.69
2022-10-06T02:11:09.237Z,102210.38
2022-10-06T02:13:40.535Z,102216.06
2022-10-06T02:16:08.466Z,102223.84
2022-10-06T02:18:36.137Z,102224.66
2022-10-06T02:21:03.838Z,102222.16
2022-10-06T02:23:30.870Z,102233.16
2022-10-06T02:26:01.898Z,102235.41
2022-10-06T02:28:30.043Z,102235.94
2022-10-06T02:31:08.273Z,102234.72
2022-10-06T02:33:37.642Z,102231.84
2022-10-06T02:36:06.509Z,102253.13
2022-10-06T02:38:33.805Z,102257.22
2022-10-06T02:41:02.073Z,102268.25
2022-10-06T02:43:31.511Z,102252.47
2022-10-06T02:46:02.627Z,102259.56
2022-10-06T02:48:30.092Z,102268.72
2022-10-06T02:51:02.840Z,102272.81
2022-10-06T02:53:29.699Z,102276.56
2022-10-06T02:56:01.407Z,102276.84
2022-10-06T02:58:30.247Z,102284.28
2022-10-06T03:01:02.642Z,102297.00
2022-10-06T03:03:29.821Z,102296.50
2022-10-06T03:06:04.362Z,102297.53
2022-10-06T03:08:33.201Z,102307.34
2022-10-06T03:11:02.467Z,102313.59
2022-10-06T03:13:30.450Z,102314.47
2022-10-06T03:15:57.781Z,102318.72
2022-10-06T03:18:24.652Z,102317.88
2022-10-06T03:20:51.494Z,102324.31
2022-10-06T03:23:17.895Z,102327.31
2022-10-06T03:25:44.317Z,102337.81
2022-10-06T03:28:11.127Z,102337.13
2022-10-06T03:30:37.849Z,102334.13
2022-10-06T03:33:05.065Z,102339.06
2022-10-06T03:35:31.424Z,102352.78
2022-10-06T03:37:58.899Z,102352.28
2022-10-06T03:40:25.969Z,102355.53
2022-10-06T03:42:52.408Z,102363.47
2022-10-06T03:45:18.878Z,102363.66
2022-10-06T03:47:45.427Z,102362.81
2022-10-06T03:50:12.026Z,102364.50
2022-10-06T03:52:38.709Z,102377.19
2022-10-06T03:55:05.546Z,102379.91
2022-10-06T03:57:33.238Z,102384.34
2022-10-06T04:00:00.598Z,102388.22
2022-10-06T04:02:27.498Z,102393.34
2022-10-06T04:04:55.902Z,102398.41
2022-10-06T04:07:23.927Z,102400.75
2022-10-06T04:09:50.801Z,102409.19
2022-10-06T04:12:17.651Z,102404.63
2022-10-06T04:14:44.223Z,102403.47
2022-10-06T04:17:10.662Z,102408.03
2022-10-06T04:19:39.880Z,102415.13
2022-10-06T04:22:06.958Z,102414.09
2022-10-06T04:24:34.297Z,102419.88
2022-10-06T04:27:19.970Z,102424.47
2022-10-06T04:29:56.240Z,102431.41
2022-10-06T04:32:22.642Z,102436.81
2022-10-06T04:34:49.285Z,102436.81
2022-10-06T04:37:16.078Z,102435.13
2022-10-06T04:39:43.778Z,102439.03
2022-10-06T04:42:10.204Z,102444.09
2022-10-06T04:44:36.836Z,102443.13
2022-10-06T04:47:04.214Z,102460.72
2022-10-06T04:49:31.638Z,102460.53
2022-10-06T04:51:58.828Z,102471.34
2022-10-06T04:54:30.035Z,102465.59
2022-10-06T04:56:59.960Z,102468.66
2022-10-06T04:59:47.841Z,102468.66
2022-10-06T05:02:16.483Z,102481.16
2022-10-06T05:04:44.019Z,102480.31
2022-10-06T05:07:11.609Z,102483.19
2022-10-06T05:09:38.007Z,102479.16
2022-10-06T05:12:04.664Z,102485.59
2022-10-06T05:14:33.297Z,102488.13
2022-10-06T05:17:00.039Z,102492.19
2022-10-06T05:19:26.444Z,102509.25
2022-10-06T05:21:53.071Z,102511.97
2022-10-06T05:24:23.701Z,102516.34
2022-10-06T05:26:50.188Z,102513.66
2022-10-06T05:29:16.865Z,102510.94
2022-10-06T05:31:44.832Z,102515.50
2022-10-06T05:34:13.206Z,102520.91
2022-10-06T05:36:40.085Z,102522.78
2022-10-06T05:39:07.794Z,102521.94
2022-10-06T05:41:42.828Z,102534.81
2022-10-06T05:44:10.749Z,102533.09
2022-10-06T05:46:39.287Z,102542.25
2022-10-06T05:49:09.078Z,102543.59
2022-10-06T05:51:37.380Z,102539.38
2022-10-06T05:54:08.126Z,102546.81
2022-10-06T05:56:36.758Z,102546.50
2022-10-06T05:59:05.244Z,102555.97
2022-10-06T06:01:35.326Z,102556.31
2022-10-06T06:04:07.996Z,102558.66
2022-10-06T06:06:40.843Z,102573.16
2022-10-06T06:09:14.002Z,102572.00
2022-10-06T06:11:49.686Z,102577.72
2022-10-06T06:14:43.834Z,102586.84
2022-10-06T06:17:14.269Z,102585.50
2022-10-06T06:19:40.734Z,102589.56
2022-10-06T06:22:08.234Z,102592.44
2022-10-06T06:24:38.228Z,102604.94
2022-10-06T06:27:04.625Z,102604.59
2022-10-06T06:29:31.144Z,102601.41
2022-10-06T06:31:57.670Z,102604.94
2022-10-06T06:34:25.240Z,102603.31
2022-10-06T06:36:54.996Z,102612.75
2022-10-06T06:39:21.563Z,102613.44
2022-10-06T06:41:49.920Z,102608.19
2022-10-06T06:44:34.742Z,102611.56
2022-10-06T06:47:05.091Z,102620.16
2022-10-06T06:49:31.465Z,102624.53
2022-10-06T06:52:04.550Z,102633.84
2022-10-06T06:54:33.496Z,102635.34
2022-10-06T06:57:09.792Z,102637.06
2022-10-06T06:59:38.089Z,102645.84
2022-10-06T07:02:06.376Z,102637.06
2022-10-06T07:04:37.356Z,102644.66
2022-10-06T07:07:05.149Z,102650.06
2022-10-06T07:09:35.958Z,102652.94
2022-10-06T07:12:06.716Z,102665.47
2022-10-06T07:14:33.114Z,102666.13
2022-10-06T07:17:19.546Z,102672.38
2022-10-06T07:20:07.509Z,102670.69
2022-10-06T07:22:53.308Z,102693.16
2022-10-06T07:25:26.809Z,102690.31
2022-10-06T07:28:03.898Z,102691.72
2022-10-06T07:30:40.867Z,102693.22
2022-10-06T07:33:11.417Z,102701.50
2022-10-06T07:35:39.472Z,102704.72
2022-10-06T07:38:07.842Z,102701.66
2022-10-06T07:40:46.244Z,102712.66
2022-10-06T07:43:22.538Z,102705.59
2022-10-06T07:45:50.170Z,102712.16
2022-10-06T07:48:23.344Z,102714.38
2022-10-06T07:50:53.591Z,102719.44
2022-10-06T07:53:27.926Z,102725.19
2022-10-06T07:56:08.525Z,102721.97
2022-10-06T07:58:41.695Z,102726.22
2022-10-06T08:01:11.276Z,102727.41
2022-10-06T08:03:38.526Z,102725.72
2022-10-06T08:06:05.532Z,102729.78
2022-10-06T08:08:37.829Z,102729.09
2022-10-06T08:11:05.550Z,102736.53
2022-10-06T08:13:32.166Z,102742.13
2022-10-06T08:16:06.811Z,102746.53
2022-10-06T08:18:45.900Z,102750.25
2022-10-06T08:21:16.074Z,102745.00
2022-10-06T08:23:43.417Z,102760.56
2022-10-06T08:26:11.513Z,102758.88
2022-10-06T08:28:39.108Z,102767.66
2022-10-06T08:31:07.998Z,102774.78
2022-10-06T08:33:38.098Z,102777.13
2022-10-06T08:36:08.572Z,102776.63
2022-10-06T08:38:36.996Z,102786.09
2022-10-06T08:41:25.297Z,102784.28
2022-10-06T08:43:58.013Z,102798.16
2022-10-06T08:46:30.095Z,102790.19
2022-10-06T08:48:58.345Z,102795.09
2022-10-06T08:51:50.602Z,102798.28
2022-10-06T08:54:35.517Z,102800.50
2022-10-06T08:57:16.457Z,102808.47
2022-10-06T08:59:48.025Z,102800.50
2022-10-06T09:02:29.778Z,102805.53
2022-10-06T09:05:01.378Z,102812.69
2022-10-06T09:07:59.260Z,102819.81
2022-10-06T09:10:39.126Z,102825.88
2022-10-06T09:13:12.529Z,102822.31
2022-10-06T09:15:46.770Z,102829.94
2022-10-06T09:18:22.159Z,102835.03
2022-10-06T09:21:06.125Z,102826.38
2022-10-06T09:23:49.962Z,102827.94
2022-10-06T09:26:18.193Z,102831.13
2022-10-06T09:28:48.063Z,102834.03
2022-10-06T09:31:37.854Z,102843.00
2022-10-06T09:34:34.798Z,102840.47
2022-10-06T09:37:04.831Z,102846.03
2022-10-06T09:39:36.355Z,102842.50
2022-10-06T09:42:12.382Z,102838.06
2022-10-06T09:44:55.386Z,102840.28
2022-10-06T09:47:36.754Z,102841.78
2022-10-06T09:50:12.096Z,102831.13
2022-10-06T09:52:40.171Z,102842.97
2022-10-06T09:55:15.170Z,102842.78
2022-10-06T09:57:53.230Z,102839.75
2022-10-06T10:00:35.777Z,102853.28
2022-10-06T10:03:12.032Z,102846.81
2022-10-06T10:05:46.489Z,102846.78
2022-10-06T10:08:12.791Z,102853.56
2022-10-06T10:10:40.231Z,102851.84
2022-10-06T10:13:24.281Z,102851.53
2022-10-06T10:16:00.665Z,102855.94
2022-10-06T10:18:32.119Z,102854.91
2022-10-06T10:21:10.296Z,102849.50
2022-10-06T10:23:40.473Z,102856.59
2022-10-06T10:26:17.286Z,102869.50
2022-10-06T10:32:13.398Z,102863.94
2022-10-06T10:34:59.171Z,102870.06
2022-10-06T10:37:35.813Z,102870.56
2022-10-06T10:40:17.299Z,102861.06
2022-10-06T10:43:10.777Z,102870.25
2022-10-06T10:45:46.428Z,102869.91
2022-10-06T10:48:22.942Z,102867.72
2022-10-06T10:50:51.067Z,102880.06
2022-10-06T10:53:50.834Z,102888.03
2022-10-06T10:56:21.278Z,102886.00
2022-10-06T10:58:52.549Z,102884.47
2022-10-06T11:01:44.491Z,102890.88
2022-10-06T11:04:12.687Z,102895.28
2022-10-06T11:06:52.902Z,102895.59
2022-10-06T11:09:29.200Z,102892.91
2022-10-06T11:12:26.028Z,102899.88
2022-10-06T11:15:03.422Z,102894.28
2022-10-06T11:17:44.910Z,102899.38
2022-10-06T11:20:33.897Z,102904.44
2022-10-06T11:23:25.078Z,102906.63
2022-10-06T11:26:18.283Z,102908.31
2022-10-06T11:28:58.511Z,102895.78
2022-10-06T11:31:43.979Z,102901.34
2022-10-06T11:34:10.983Z,102903.19
2022-10-06T11:37:02.449Z,102917.06
2022-10-06T11:39:40.908Z,102908.66
2022-10-06T11:42:38.749Z,102913.38
2022-10-06T11:45:13.778Z,102919.97
2022-10-06T11:48:17.576Z,102918.25
2022-10-06T11:50:44.571Z,102920.25
2022-10-06T11:53:28.333Z,102916.53
2022-10-06T11:56:16.534Z,102908.22
2022-10-06T11:58:51.928Z,102911.13
2022-10-06T12:01:30.442Z,102916.84
2022-10-06T12:04:08.980Z,102914.69
2022-10-06T12:06:45.053Z,102904.97
2022-10-06T12:09:23.575Z,102893.97
2022-10-06T12:12:01.248Z,102897.94
2022-10-06T12:17:37.641Z,102898.91
2022-10-06T12:20:55.182Z,102900.56
2022-10-06T12:23:39.129Z,102894.81
2022-10-06T12:26:35.989Z,102902.72
2022-10-06T12:29:26.319Z,102897.63
2022-10-06T12:31:52.685Z,102889.81
2022-10-06T12:34:51.822Z,102894.03
2022-10-06T12:37:28.744Z,102901.81
2022-10-06T12:40:36.447Z,102893.81
2022-10-06T12:43:18.004Z,102889.88
2022-10-06T12:45:46.971Z,102879.31
2022-10-06T12:48:35.127Z,102894.63
2022-10-06T12:51:20.625Z,102894.47
2022-10-06T12:54:09.647Z,102883.06
2022-10-06T12:56:38.386Z,102890.38
2022-10-06T12:59:27.294Z,102891.47
2022-10-06T13:01:58.237Z,102900.06
2022-10-06T13:04:31.625Z,102898.84
2022-10-06T13:06:58.188Z,102894.81
2022-10-06T13:09:24.619Z,102890.63
2022-10-06T13:11:51.030Z,102891.38
2022-10-06T13:14:17.384Z,102885.03
2022-10-06T13:16:47.917Z,102897.38
2022-10-06T13:19:24.372Z,102894.13
2022-10-06T13:21:51.227Z,102890.28
2022-10-06T13:24:21.553Z,102889.09
2022-10-06T13:26:48.212Z,102882.06
2022-10-06T13:29:24.082Z,102898.56
2022-10-06T13:31:53.503Z,102890.47
2022-10-06T13:34:43.200Z,102880.59
2022-10-06T13:37:14.688Z,102879.59
2022-10-06T13:39:41.167Z,102886.53
2022-10-06T13:42:17.731Z,102883.66
2022-10-06T13:44:54.033Z,102890.56
2022-10-06T13:47:24.444Z,102890.22
2022-10-06T13:50:01.949Z,102888.53
2022-10-06T13:52:44.506Z,102894.31
2022-10-06T13:55:15.424Z,102877.38
2022-10-06T13:58:08.622Z,102886.66
2022-10-06T14:00:57.968Z,102895.16
2022-10-06T14:03:25.966Z,102895.84
2022-10-06T14:06:18.884Z,102901.16
2022-10-06T14:08:51.530Z,102891.66
2022-10-06T14:11:27.152Z,102893.19
2022-10-06T14:14:00.871Z,102879.75
2022-10-06T14:16:29.426Z,102879.13
2022-10-06T14:18:59.771Z,102877.38
2022-10-06T14:21:32.878Z,102878.22
2022-10-06T14:24:03.632Z,102873.78
2022-10-06T14:26:37.387Z,102868.34
2022-10-06T14:29:03.964Z,102872.78
2022-10-06T14:31:33.816Z,102875.16
2022-10-06T14:34:01.471Z,102868.91
2022-10-06T14:36:32.151Z,102868.91
2022-10-06T14:38:59.575Z,102869.38
2022-10-06T14:41:29.303Z,102871.94
2022-10-06T14:44:03.563Z,102867.22
2022-10-06T14:46:30.086Z,102865.88
2022-10-06T14:48:57.571Z,102860.25
2022-10-06T14:51:26.172Z,102867.06
2022-10-06T14:53:54.307Z,102866.25
2022-10-06T14:56:31.622Z,102868.47
2022-10-06T14:59:04.988Z,102871.19
2022-10-06T15:01:33.621Z,102869.50
2022-10-06T15:04:09.353Z,102858.53
2022-10-06T15:06:54.327Z,102862.63
2022-10-06T15:09:20.686Z,102862.97
2022-10-06T15:11:47.292Z,102862.13
2022-10-06T15:14:13.646Z,102861.06
2022-10-06T15:16:42.242Z,102860.03
2022-10-06T15:19:11.891Z,102859.38
2022-10-06T15:21:40.070Z,102857.19
2022-10-06T15:24:10.610Z,102856.72
2022-10-06T15:26:55.412Z,102862.63
2022-10-06T15:29:21.898Z,102850.25
2022-10-06T15:31:54.528Z,102865.50
2022-10-06T15:34:25.159Z,102850.59
2022-10-06T15:36:53.236Z,102847.34
2022-10-06T15:39:21.630Z,102850.25
2022-10-06T15:41:48.477Z,102842.75
2022-10-06T15:44:16.298Z,102843.31
2022-10-06T15:46:45.679Z,102847.91
2022-10-06T15:49:16.902Z,102845.53
2022-10-06T15:51:48.906Z,102845.38
2022-10-06T15:54:20.872Z,102844.53
2022-10-06T15:56:52.692Z,102854.88
2022-10-06T15:59:23.852Z,102856.28
2022-10-06T16:02:00.389Z,102853.19
2022-10-06T16:04:35.940Z,102848.44
2022-10-06T16:07:04.200Z,102857.59
2022-10-06T16:09:33.130Z,102854.56
2022-10-06T16:12:02.513Z,102858.31
2022-10-06T16:14:29.734Z,102863.56
2022-10-06T16:16:59.746Z,102856.44
2022-10-06T16:19:27.804Z,102865.94
2022-10-06T16:21:58.788Z,102852.75
2022-10-06T16:24:26.602Z,102850.94
2022-10-06T16:26:54.226Z,102851.56
2022-10-06T16:29:21.646Z,102857.72
2022-10-06T16:31:48.586Z,102852.94
2022-10-06T16:34:15.326Z,102854.63
2022-10-06T16:36:42.194Z,102847.72
2022-10-06T16:39:13.746Z,102831.81
2022-10-06T16:41:40.368Z,102844.34
2022-10-06T16:44:12.618Z,102846.09
2022-10-06T16:46:39.464Z,102846.78
2022-10-06T16:49:07.353Z,102844.75
2022-10-06T16:51:37.413Z,102840.00
2022-10-06T16:54:06.285Z,102845.91
2022-10-06T16:56:44.419Z,102843.38
2022-10-06T16:59:22.414Z,102841.66
2022-10-06T17:01:50.100Z,102841.00
2022-10-06T17:04:19.162Z,102847.47
2022-10-06T17:06:47.813Z,102843.41
2022-10-06T17:09:18.736Z,102846.47
2022-10-06T17:11:48.042Z,102840.38
2022-10-06T17:14:14.883Z,102842.94
2022-10-06T17:16:44.348Z,102846.31
2022-10-06T17:19:16.349Z,102848.53
2022-10-06T17:21:46.637Z,102846.50
2022-10-06T17:24:14.358Z,102841.22
2022-10-06T17:26:43.029Z,102836.63
2022-10-06T17:29:14.801Z,102843.94
2022-10-06T17:31:42.934Z,102842.59
2022-10-06T17:34:12.564Z,102845.69
2022-10-06T17:36:41.177Z,102846.16
2022-10-06T17:39:10.589Z,102837.38
2022-10-06T17:41:40.020Z,102844.66
2022-10-06T17:44:22.679Z,102838.75
2022-10-06T17:46:52.027Z,102840.75
2022-10-06T17:49:20.686Z,102839.06
2022-10-06T17:51:48.089Z,102847.41
2022-10-06T17:54:18.039Z,102844.50
2022-10-06T17:56:46.447Z,102840.44
2022-10-06T17:59:16.246Z,102838.94
2022-10-06T18:01:44.777Z,102841.31
2022-10-06T18:04:15.999Z,102848.78
2022-10-06T18:06:43.712Z,102844.88
2022-10-06T18:09:10.145Z,102844.03
2022-10-06T18:11:41.930Z,102844.53
2022-10-06T18:14:12.302Z,102848.59
2022-10-06T18:16:45.077Z,102837.75
2022-10-06T18:19:14.002Z,102851.47
2022-10-06T18:21:42.301Z,102850.75
2022-10-06T18:24:16.311Z,102849.94
2022-10-06T18:26:44.246Z,102843.84
2022-10-06T18:29:11.192Z,102844.19
2022-10-06T18:31:39.026Z,102846.03
2022-10-06T18:36:53.001Z,102842.97
2022-10-06T18:39:19.552Z,102838.44
2022-10-06T18:41:47.452Z,102838.25
2022-10-06T18:44:13.830Z,102834.72
2022-10-06T18:46:58.676Z,102836.38
2022-10-06T18:49:25.217Z,102834.72
2022-10-06T18:51:58.092Z,102828.97
2022-10-06T18:54:26.985Z,102835.03
2022-10-06T18:56:54.910Z,102837.75
2022-10-06T18:59:26.170Z,102830.47
2022-10-06T19:01:54.474Z,102831.66
2022-10-06T19:04:22.358Z,102829.94
2022-10-06T19:06:50.905Z,102831.16
2022-10-06T19:09:19.209Z,102820.84
2022-10-06T19:11:55.682Z,102824.53
2022-10-06T19:14:35.609Z,102824.72
2022-10-06T19:17:13.806Z,102825.88
2022-10-06T19:19:45.544Z,102824.38
2022-10-06T19:22:14.202Z,102818.28
2022-10-06T19:24:43.453Z,102818.59
2022-10-06T19:27:13.138Z,102824.03
2022-10-06T19:29:45.274Z,102818.78
2022-10-06T19:32:16.090Z,102825.38
2022-10-06T19:34:43.245Z,102817.41
2022-10-06T19:37:09.829Z,102816.59
2022-10-06T19:39:42.748Z,102818.25
2022-10-06T19:42:30.376Z,102820.81
2022-10-06T19:44:56.867Z,102827.41
2022-10-06T19:47:23.729Z,102820.47
2022-10-06T19:49:50.100Z,102816.41
2022-10-06T19:52:16.686Z,102830.94
2022-10-06T19:54:43.263Z,102829.78
2022-10-06T19:57:11.281Z,102825.72
2022-10-06T19:59:38.478Z,102823.34
2022-10-06T20:02:08.561Z,102824.50
2022-10-06T20:04:35.625Z,102824.69
2022-10-06T20:07:02.242Z,102821.13
2022-10-06T20:09:33.803Z,102828.41
2022-10-06T20:12:01.347Z,102826.38
2022-10-06T20:14:28.429Z,102819.41
2022-10-06T20:16:56.410Z,102822.47
2022-10-06T20:19:25.263Z,102827.38
2022-10-06T20:21:52.698Z,102821.78
2022-10-06T20:24:24.822Z,102822.50
2022-10-06T20:26:53.261Z,102826.88
2022-10-06T20:29:22.811Z,102823.50
2022-10-06T20:31:52.700Z,102832.63
2022-10-06T20:34:21.927Z,102832.63
2022-10-06T20:36:53.104Z,102830.94
2022-10-06T20:39:40.991Z,102823.97
2022-10-06T20:42:12.196Z,102823.13
2022-10-06T20:44:41.969Z,102825.19
2022-10-06T20:47:08.857Z,102824.16
2022-10-06T20:49:35.215Z,102822.13
2022-10-06T20:52:03.163Z,102822.28
2022-10-06T20:54:34.703Z,102817.38
2022-10-06T20:57:03.784Z,102812.00
2022-10-06T20:59:30.935Z,102812.84
2022-10-06T21:01:59.669Z,102820.09
2022-10-06T21:04:27.358Z,102817.72
2022-10-06T21:06:53.718Z,102812.63
2022-10-06T21:09:20.311Z,102809.28
2022-10-06T21:11:47.670Z,102807.72
2022-10-06T21:14:15.472Z,102802.81
2022-10-06T21:16:43.808Z,102796.38
2022-10-06T21:19:14.402Z,102787.94
2022-10-06T21:21:42.567Z,102796.25
2022-10-06T21:24:09.510Z,102795.53
2022-10-06T21:26:38.475Z,102788.63
2022-10-06T21:29:04.985Z,102793.00
2022-10-06T21:31:32.039Z,102787.06
2022-10-06T21:33:59.115Z,102787.25
2022-10-06T21:36:27.124Z,102790.78
2022-10-06T21:38:58.148Z,102798.38
2022-10-06T21:41:31.322Z,102789.44
2022-10-06T21:44:09.371Z,102785.53
2022-10-06T21:46:38.698Z,102774.72
2022-10-06T21:49:07.404Z,102769.47
2022-10-06T21:51:33.824Z,102771.00
2022-10-06T21:54:01.390Z,102761.88
2022-10-06T21:56:31.202Z,102754.78
2022-10-06T21:58:58.585Z,102757.47
2022-10-06T22:01:27.972Z,102755.44
2022-10-06T22:03:55.509Z,102749.00
2022-10-06T22:06:22.222Z,102744.47
2022-10-06T22:08:48.995Z,102739.53
2022-10-06T22:11:17.325Z,102740.56
2022-10-06T22:13:46.575Z,102729.06
2022-10-06T22:16:18.228Z,102727.88
2022-10-06T22:18:45.832Z,102728.88
2022-10-06T22:21:19.255Z,102715.38
2022-10-06T22:23:48.014Z,102715.88
2022-10-06T22:26:15.734Z,102716.34
2022-10-06T22:28:47.866Z,102713.50
2022-10-06T22:31:16.352Z,102706.03
2022-10-06T22:33:44.108Z,102710.38
2022-10-06T22:36:13.761Z,102713.94
2022-10-06T22:38:40.974Z,102701.25
2022-10-06T22:41:10.142Z,102697.88
2022-10-06T22:43:37.247Z,102698.88
2022-10-06T22:46:06.745Z,102693.47
2022-10-06T22:48:33.211Z,102685.03
2022-10-06T22:50:59.574Z,102691.97
2022-10-06T22:53:30.007Z,102693.47
2022-10-06T22:55:56.837Z,102691.47
2022-10-06T22:58:23.504Z,102685.34
2022-10-06T23:00:49.878Z,102674.72
2022-10-06T23:03:17.747Z,102682.50
2022-10-06T23:05:54.120Z,102679.94
2022-10-06T23:08:20.462Z,102671.00
2022-10-06T23:10:46.801Z,102671.19
2022-10-06T23:13:13.136Z,102665.06
2022-10-06T23:15:39.494Z,102657.81
2022-10-06T23:18:07.940Z,102666.91
2022-10-06T23:20:34.755Z,102664.22
2022-10-06T23:23:01.220Z,102657.78
2022-10-06T23:25:27.616Z,102658.16
2022-10-06T23:27:54.190Z,102658.78
2022-10-06T23:30:20.644Z,102650.84
2022-10-06T23:32:47.008Z,102649.84
2022-10-06T23:35:13.368Z,102646.47
2022-10-06T23:37:39.724Z,102641.72
2022-10-06T23:40:06.644Z,102642.44
2022-10-06T23:42:33.032Z,102646.13
2022-10-06T23:44:59.383Z,102647.13
2022-10-06T23:47:25.774Z,102646.13
2022-10-06T23:49:52.113Z,102639.19
2022-10-06T23:52:18.468Z,102630.56
2022-10-06T23:54:44.916Z,102626.84
2022-10-06T23:57:11.303Z,102634.13
2022-10-06T23:59:37.685Z,102635.47
